sensor_id;sensor_type;location;lat;lon;timestamp;pressure;altitude;pressure_sealevel;temperature;humidity
38718;BME280;24468;52.128;9.278;2023-07-13T00:00:04;100487.84;;;19.71;100.00
38718;BME280;24468;52.128;9.278;2023-07-13T00:02:42;100479.25;;;19.76;100.00
38718;BME280;24468;52.128;9.278;2023-07-13T00:05:08;100473.41;;;19.81;100.00
38718;BME280;24468;52.128;9.278;2023-07-13T00:07:35;100485.06;;;19.94;100.00
38718;BME280;24468;52.128;9.278;2023-07-13T00:10:01;100488.59;;;19.62;100.00
38718;BME280;24468;52.128;9.278;2023-07-13T00:12:32;100487.38;;;19.44;100.00
38718;BME280;24468;52.128;9.278;2023-07-13T00:15:01;100493.84;;;19.43;100.00
38718;BME280;24468;52.128;9.278;2023-07-13T00:17:28;100496.69;;;19.52;100.00
38718;BME280;24468;52.128;9.278;2023-07-13T00:19:56;100491.00;;;19.67;100.00
38718;BME280;24468;52.128;9.278;2023-07-13T00:22:23;100499.19;;;19.44;100.00
38718;BME280;24468;52.128;9.278;2023-07-13T00:24:54;100501.44;;;19.39;100.00
38718;BME280;24468;52.128;9.278;2023-07-13T00:27:23;100505.28;;;19.14;100.00
38718;BME280;24468;52.128;9.278;2023-07-13T00:29:49;100500.41;;;19.63;100.00
38718;BME280;24468;52.128;9.278;2023-07-13T00:32:14;100488.97;;;19.80;100.00
38718;BME280;24468;52.128;9.278;2023-07-13T00:34:40;100490.69;;;19.81;100.00
38718;BME280;24468;52.128;9.278;2023-07-13T00:37:07;100488.84;;;19.59;100.00
38718;BME280;24468;52.128;9.278;2023-07-13T00:39:34;100493.09;;;19.52;100.00
38718;BME280;24468;52.128;9.278;2023-07-13T00:42:04;100489.38;;;19.19;100.00
38718;BME280;24468;52.128;9.278;2023-07-13T00:44:30;100499.19;;;19.22;100.00
38718;BME280;24468;52.128;9.278;2023-07-13T00:46:56;100499.06;;;19.68;100.00
38718;BME280;24468;52.128;9.278;2023-07-13T00:49:25;100494.84;;;19.53;100.00
38718;BME280;24468;52.128;9.278;2023-07-13T00:51:58;100494.97;;;20.06;100.00
38718;BME280;24468;52.128;9.278;2023-07-13T00:54:35;100490.28;;;19.97;100.00
38718;BME280;24468;52.128;9.278;2023-07-13T00:57:09;100489.56;;;19.84;100.00
38718;BME280;24468;52.128;9.278;2023-07-13T00:59:40;100493.06;;;19.86;100.00
38718;BME280;24468;52.128;9.278;2023-07-13T01:02:07;100493.06;;;20.39;100.00
38718;BME280;24468;52.128;9.278;2023-07-13T01:04:32;100484.28;;;20.56;100.00
38718;BME280;24468;52.128;9.278;2023-07-13T01:06:58;100492.91;;;20.52;100.00
38718;BME280;24468;52.128;9.278;2023-07-13T01:09:26;100490.59;;;20.36;100.00
38718;BME280;24468;52.128;9.278;2023-07-13T01:11:51;100485.66;;;19.97;100.00
38718;BME280;24468;52.128;9.278;2023-07-13T01:14:17;100492.47;;;20.35;100.00
38718;BME280;24468;52.128;9.278;2023-07-13T01:16:45;100487.88;;;20.36;100.00
38718;BME280;24468;52.128;9.278;2023-07-13T01:19:36;100483.91;;;20.08;100.00
38718;BME280;24468;52.128;9.278;2023-07-13T01:22:12;100485.22;;;19.81;100.00
38718;BME280;24468;52.128;9.278;2023-07-13T01:24:42;100491.63;;;19.03;100.00
38718;BME280;24468;52.128;9.278;2023-07-13T01:27:10;100487.25;;;19.00;100.00
38718;BME280;24468;52.128;9.278;2023-07-13T01:29:38;100484.41;;;18.79;100.00
38718;BME280;24468;52.128;9.278;2023-07-13T01:32:09;100492.13;;;19.19;100.00
38718;BME280;24468;52.128;9.278;2023-07-13T01:34:36;100490.41;;;20.28;100.00
38718;BME280;24468;52.128;9.278;2023-07-13T01:37:04;100487.63;;;20.07;100.00
38718;BME280;24468;52.128;9.278;2023-07-13T01:39:30;100490.31;;;19.63;100.00
38718;BME280;24468;52.128;9.278;2023-07-13T01:41:55;100491.47;;;19.38;100.00
38718;BME280;24468;52.128;9.278;2023-07-13T01:44:21;100496.22;;;18.91;100.00
38718;BME280;24468;52.128;9.278;2023-07-13T01:46:46;100487.41;;;18.99;100.00
38718;BME280;24468;52.128;9.278;2023-07-13T01:49:12;100487.81;;;18.59;100.00
38718;BME280;24468;52.128;9.278;2023-07-13T01:51:37;100494.38;;;18.56;100.00
38718;BME280;24468;52.128;9.278;2023-07-13T01:54:03;100503.06;;;18.50;100.00
38718;BME280;24468;52.128;9.278;2023-07-13T01:56:28;100500.19;;;18.40;100.00
38718;BME280;24468;52.128;9.278;2023-07-13T01:58:54;100500.88;;;18.31;100.00
38718;BME280;24468;52.128;9.278;2023-07-13T02:01:19;100496.25;;;18.20;100.00
38718;BME280;24468;52.128;9.278;2023-07-13T02:03:45;100512.53;;;17.98;100.00
38718;BME280;24468;52.128;9.278;2023-07-13T02:06:12;100516.44;;;17.70;100.00
38718;BME280;24468;52.128;9.278;2023-07-13T02:08:37;100521.03;;;17.20;100.00
38718;BME280;24468;52.128;9.278;2023-07-13T02:11:03;100526.38;;;17.34;100.00
38718;BME280;24468;52.128;9.278;2023-07-13T02:13:29;100529.66;;;17.63;100.00
38718;BME280;24468;52.128;9.278;2023-07-13T02:15:54;100518.19;;;17.71;100.00
38718;BME280;24468;52.128;9.278;2023-07-13T02:18:20;100525.81;;;17.66;100.00
38718;BME280;24468;52.128;9.278;2023-07-13T02:20:46;100523.31;;;17.75;100.00
38718;BME280;24468;52.128;9.278;2023-07-13T02:23:12;100511.72;;;17.48;100.00
38718;BME280;24468;52.128;9.278;2023-07-13T02:25:37;100523.63;;;17.71;100.00
38718;BME280;24468;52.128;9.278;2023-07-13T02:28:03;100512.47;;;17.87;100.00
38718;BME280;24468;52.128;9.278;2023-07-13T02:30:30;100515.13;;;17.75;100.00
38718;BME280;24468;52.128;9.278;2023-07-13T02:32:56;100512.59;;;17.85;100.00
38718;BME280;24468;52.128;9.278;2023-07-13T02:35:22;100510.78;;;17.60;100.00
38718;BME280;24468;52.128;9.278;2023-07-13T02:37:48;100505.50;;;17.46;100.00
38718;BME280;24468;52.128;9.278;2023-07-13T02:40:14;100521.94;;;17.57;100.00
38718;BME280;24468;52.128;9.278;2023-07-13T02:42:40;100513.81;;;17.68;100.00
38718;BME280;24468;52.128;9.278;2023-07-13T02:45:07;100511.53;;;17.75;100.00
38718;BME280;24468;52.128;9.278;2023-07-13T02:47:34;100513.06;;;17.79;100.00
38718;BME280;24468;52.128;9.278;2023-07-13T02:50:00;100505.53;;;17.70;100.00
38718;BME280;24468;52.128;9.278;2023-07-13T02:52:26;100502.91;;;17.81;100.00
38718;BME280;24468;52.128;9.278;2023-07-13T02:54:52;100515.97;;;17.89;100.00
38718;BME280;24468;52.128;9.278;2023-07-13T02:57:18;100514.44;;;18.09;100.00
38718;BME280;24468;52.128;9.278;2023-07-13T02:59:43;100509.63;;;18.12;100.00
38718;BME280;24468;52.128;9.278;2023-07-13T03:02:09;100511.00;;;18.18;100.00
38718;BME280;24468;52.128;9.278;2023-07-13T03:04:36;100510.16;;;18.17;100.00
38718;BME280;24468;52.128;9.278;2023-07-13T03:07:04;100521.31;;;18.14;100.00
38718;BME280;24468;52.128;9.278;2023-07-13T03:09:32;100520.81;;;18.20;100.00
38718;BME280;24468;52.128;9.278;2023-07-13T03:11:58;100514.97;;;18.38;100.00
38718;BME280;24468;52.128;9.278;2023-07-13T03:14:23;100519.69;;;18.47;100.00
38718;BME280;24468;52.128;9.278;2023-07-13T03:16:49;100520.19;;;18.41;100.00
38718;BME280;24468;52.128;9.278;2023-07-13T03:19:14;100510.63;;;18.47;100.00
38718;BME280;24468;52.128;9.278;2023-07-13T03:21:40;100511.97;;;18.41;100.00
38718;BME280;24468;52.128;9.278;2023-07-13T03:24:06;100523.13;;;18.73;100.00
38718;BME280;24468;52.128;9.278;2023-07-13T03:26:32;100518.75;;;18.59;100.00
38718;BME280;24468;52.128;9.278;2023-07-13T03:28:58;100519.22;;;18.53;100.00
38718;BME280;24468;52.128;9.278;2023-07-13T03:31:28;100518.84;;;18.58;100.00
38718;BME280;24468;52.128;9.278;2023-07-13T03:33:56;100526.69;;;18.62;100.00
38718;BME280;24468;52.128;9.278;2023-07-13T03:36:25;100522.09;;;18.63;100.00
38718;BME280;24468;52.128;9.278;2023-07-13T03:38:55;100528.81;;;18.70;100.00
38718;BME280;24468;52.128;9.278;2023-07-13T03:41:21;100516.16;;;18.69;100.00
38718;BME280;24468;52.128;9.278;2023-07-13T03:43:48;100515.28;;;18.69;100.00
38718;BME280;24468;52.128;9.278;2023-07-13T03:46:14;100519.50;;;18.73;100.00
38718;BME280;24468;52.128;9.278;2023-07-13T03:48:42;100523.25;;;18.72;100.00
38718;BME280;24468;52.128;9.278;2023-07-13T03:51:09;100521.56;;;18.82;100.00
38718;BME280;24468;52.128;9.278;2023-07-13T03:53:40;100525.69;;;18.99;100.00
38718;BME280;24468;52.128;9.278;2023-07-13T03:56:06;100529.53;;;18.96;100.00
38718;BME280;24468;52.128;9.278;2023-07-13T03:58:37;100529.19;;;19.23;100.00
38718;BME280;24468;52.128;9.278;2023-07-13T04:01:05;100526.81;;;19.19;100.00
38718;BME280;24468;52.128;9.278;2023-07-13T04:03:32;100535.00;;;19.52;100.00
38718;BME280;24468;52.128;9.278;2023-07-13T04:06:03;100526.00;;;19.95;100.00
38718;BME280;24468;52.128;9.278;2023-07-13T04:08:32;100531.25;;;19.87;100.00
38718;BME280;24468;52.128;9.278;2023-07-13T04:10:58;100526.38;;;19.91;100.00
38718;BME280;24468;52.128;9.278;2023-07-13T04:13:25;100528.97;;;20.04;100.00
38718;BME280;24468;52.128;9.278;2023-07-13T04:15:51;100537.56;;;19.99;100.00
38718;BME280;24468;52.128;9.278;2023-07-13T04:18:17;100543.25;;;20.07;100.00
38718;BME280;24468;52.128;9.278;2023-07-13T04:20:43;100539.94;;;19.92;100.00
38718;BME280;24468;52.128;9.278;2023-07-13T04:23:08;100540.50;;;20.18;100.00
38718;BME280;24468;52.128;9.278;2023-07-13T04:25:34;100542.22;;;19.76;100.00
38718;BME280;24468;52.128;9.278;2023-07-13T04:27:59;100543.84;;;19.56;100.00
38718;BME280;24468;52.128;9.278;2023-07-13T04:30:25;100541.84;;;19.81;100.00
38718;BME280;24468;52.128;9.278;2023-07-13T04:32:52;100555.16;;;19.40;100.00
38718;BME280;24468;52.128;9.278;2023-07-13T04:35:19;100549.06;;;19.25;100.00
38718;BME280;24468;52.128;9.278;2023-07-13T04:37:49;100550.56;;;19.41;100.00
38718;BME280;24468;52.128;9.278;2023-07-13T04:40:19;100548.31;;;19.80;100.00
38718;BME280;24468;52.128;9.278;2023-07-13T04:42:46;100544.81;;;19.89;100.00
38718;BME280;24468;52.128;9.278;2023-07-13T04:45:13;100557.31;;;20.46;100.00
38718;BME280;24468;52.128;9.278;2023-07-13T04:47:40;100556.16;;;20.60;100.00
38718;BME280;24468;52.128;9.278;2023-07-13T04:50:08;100553.69;;;20.57;100.00
38718;BME280;24468;52.128;9.278;2023-07-13T04:52:34;100558.16;;;20.58;100.00
38718;BME280;24468;52.128;9.278;2023-07-13T04:54:59;100556.78;;;20.20;100.00
38718;BME280;24468;52.128;9.278;2023-07-13T04:57:26;100555.88;;;20.31;100.00
38718;BME280;24468;52.128;9.278;2023-07-13T04:59:53;100552.16;;;20.64;100.00
38718;BME280;24468;52.128;9.278;2023-07-13T05:02:21;100554.22;;;20.39;100.00
38718;BME280;24468;52.128;9.278;2023-07-13T05:04:49;100552.56;;;20.80;100.00
38718;BME280;24468;52.128;9.278;2023-07-13T05:07:15;100552.28;;;21.04;100.00
38718;BME280;24468;52.128;9.278;2023-07-13T05:09:40;100559.94;;;21.01;100.00
38718;BME280;24468;52.128;9.278;2023-07-13T05:12:09;100559.84;;;20.70;100.00
38718;BME280;24468;52.128;9.278;2023-07-13T05:14:35;100559.59;;;21.25;100.00
38718;BME280;24468;52.128;9.278;2023-07-13T05:17:00;100558.03;;;21.01;100.00
38718;BME280;24468;52.128;9.278;2023-07-13T05:19:26;100560.22;;;21.28;100.00
38718;BME280;24468;52.128;9.278;2023-07-13T05:21:52;100563.59;;;21.42;100.00
38718;BME280;24468;52.128;9.278;2023-07-13T05:24:18;100562.06;;;20.76;100.00
38718;BME280;24468;52.128;9.278;2023-07-13T05:26:44;100567.81;;;20.94;100.00
38718;BME280;24468;52.128;9.278;2023-07-13T05:29:10;100575.63;;;20.46;100.00
38718;BME280;24468;52.128;9.278;2023-07-13T05:31:35;100568.94;;;20.38;100.00
38718;BME280;24468;52.128;9.278;2023-07-13T05:34:01;100564.94;;;20.96;100.00
38718;BME280;24468;52.128;9.278;2023-07-13T05:36:26;100566.88;;;21.05;100.00
38718;BME280;24468;52.128;9.278;2023-07-13T05:38:52;100573.25;;;20.52;100.00
38718;BME280;24468;52.128;9.278;2023-07-13T05:41:17;100577.53;;;19.57;100.00
38718;BME280;24468;52.128;9.278;2023-07-13T05:43:43;100577.47;;;19.00;100.00
38718;BME280;24468;52.128;9.278;2023-07-13T05:46:08;100581.25;;;19.22;100.00
38718;BME280;24468;52.128;9.278;2023-07-13T05:48:34;100584.72;;;19.13;100.00
38718;BME280;24468;52.128;9.278;2023-07-13T05:51:01;100583.88;;;19.57;100.00
38718;BME280;24468;52.128;9.278;2023-07-13T05:53:26;100583.03;;;19.45;100.00
38718;BME280;24468;52.128;9.278;2023-07-13T05:55:54;100584.63;;;19.37;100.00
38718;BME280;24468;52.128;9.278;2023-07-13T05:58:20;100594.59;;;18.80;100.00
38718;BME280;24468;52.128;9.278;2023-07-13T06:00:47;100588.25;;;19.48;100.00
38718;BME280;24468;52.128;9.278;2023-07-13T06:03:13;100594.06;;;20.11;100.00
38718;BME280;24468;52.128;9.278;2023-07-13T06:05:39;100585.03;;;19.66;100.00
38718;BME280;24468;52.128;9.278;2023-07-13T06:08:07;100584.22;;;20.09;100.00
38718;BME280;24468;52.128;9.278;2023-07-13T06:10:35;100588.41;;;19.69;100.00
38718;BME280;24468;52.128;9.278;2023-07-13T06:13:00;100591.66;;;20.18;100.00
38718;BME280;24468;52.128;9.278;2023-07-13T06:15:26;100593.63;;;20.27;100.00
38718;BME280;24468;52.128;9.278;2023-07-13T06:17:52;100591.53;;;20.19;100.00
38718;BME280;24468;52.128;9.278;2023-07-13T06:20:17;100594.47;;;19.84;100.00
38718;BME280;24468;52.128;9.278;2023-07-13T06:22:43;100599.94;;;19.62;100.00
38718;BME280;24468;52.128;9.278;2023-07-13T06:25:08;100599.44;;;19.34;100.00
38718;BME280;24468;52.128;9.278;2023-07-13T06:27:34;100597.16;;;19.17;100.00
38718;BME280;24468;52.128;9.278;2023-07-13T06:29:59;100592.41;;;20.20;100.00
38718;BME280;24468;52.128;9.278;2023-07-13T06:32:25;100595.94;;;19.99;100.00
38718;BME280;24468;52.128;9.278;2023-07-13T06:34:51;100598.31;;;19.93;100.00
38718;BME280;24468;52.128;9.278;2023-07-13T06:37:18;100605.25;;;19.29;100.00
38718;BME280;24468;52.128;9.278;2023-07-13T06:39:44;100600.41;;;20.12;100.00
38718;BME280;24468;52.128;9.278;2023-07-13T06:42:09;100602.34;;;20.32;100.00
38718;BME280;24468;52.128;9.278;2023-07-13T06:44:36;100601.94;;;19.71;100.00
38718;BME280;24468;52.128;9.278;2023-07-13T06:47:01;100610.84;;;20.07;100.00
38718;BME280;24468;52.128;9.278;2023-07-13T06:49:27;100593.16;;;20.65;100.00
38718;BME280;24468;52.128;9.278;2023-07-13T06:51:52;100614.75;;;19.48;100.00
38718;BME280;24468;52.128;9.278;2023-07-13T06:54:18;100608.28;;;19.94;100.00
38718;BME280;24468;52.128;9.278;2023-07-13T06:56:43;100611.34;;;19.44;100.00
38718;BME280;24468;52.128;9.278;2023-07-13T06:59:09;100624.38;;;19.07;100.00
38718;BME280;24468;52.128;9.278;2023-07-13T07:01:34;100595.69;;;19.24;100.00
38718;BME280;24468;52.128;9.278;2023-07-13T07:04:00;100619.75;;;18.96;100.00
38718;BME280;24468;52.128;9.278;2023-07-13T07:06:25;100621.31;;;19.23;100.00
38718;BME280;24468;52.128;9.278;2023-07-13T07:08:52;100601.19;;;18.77;100.00
38718;BME280;24468;52.128;9.278;2023-07-13T07:11:22;100604.91;;;18.76;100.00
38718;BME280;24468;52.128;9.278;2023-07-13T07:13:49;100616.09;;;19.31;100.00
38718;BME280;24468;52.128;9.278;2023-07-13T07:16:15;100616.34;;;19.28;100.00
38718;BME280;24468;52.128;9.278;2023-07-13T07:18:41;100614.50;;;18.82;100.00
38718;BME280;24468;52.128;9.278;2023-07-13T07:21:06;100619.97;;;18.82;100.00
38718;BME280;24468;52.128;9.278;2023-07-13T07:23:32;100620.06;;;19.49;100.00
38718;BME280;24468;52.128;9.278;2023-07-13T07:25:58;100626.28;;;19.51;100.00
38718;BME280;24468;52.128;9.278;2023-07-13T07:28:24;100621.81;;;19.39;100.00
38718;BME280;24468;52.128;9.278;2023-07-13T07:30:53;100622.34;;;19.78;100.00
38718;BME280;24468;52.128;9.278;2023-07-13T07:33:19;100621.44;;;20.66;100.00
38718;BME280;24468;52.128;9.278;2023-07-13T07:35:45;100647.56;;;20.70;97.33
38718;BME280;24468;52.128;9.278;2023-07-13T07:38:10;100628.03;;;20.63;100.00
38718;BME280;24468;52.128;9.278;2023-07-13T07:40:38;100617.72;;;20.56;99.84
38718;BME280;24468;52.128;9.278;2023-07-13T07:43:04;100604.81;;;20.68;98.87
38718;BME280;24468;52.128;9.278;2023-07-13T07:45:30;100608.16;;;20.39;100.00
38718;BME280;24468;52.128;9.278;2023-07-13T07:47:55;100623.03;;;20.90;98.84
38718;BME280;24468;52.128;9.278;2023-07-13T07:50:25;100628.97;;;20.41;100.00
38718;BME280;24468;52.128;9.278;2023-07-13T07:52:50;100612.13;;;20.57;100.00
38718;BME280;24468;52.128;9.278;2023-07-13T07:55:16;100620.09;;;20.81;97.88
38718;BME280;24468;52.128;9.278;2023-07-13T07:57:42;100632.66;;;20.84;100.00
38718;BME280;24468;52.128;9.278;2023-07-13T08:00:08;100623.19;;;20.88;99.72
38718;BME280;24468;52.128;9.278;2023-07-13T08:02:33;100625.66;;;20.91;99.19
38718;BME280;24468;52.128;9.278;2023-07-13T08:04:59;100622.31;;;21.29;95.65
38718;BME280;24468;52.128;9.278;2023-07-13T08:07:24;100627.34;;;21.24;96.68
38718;BME280;24468;52.128;9.278;2023-07-13T08:09:53;100632.88;;;21.55;94.89
38718;BME280;24468;52.128;9.278;2023-07-13T08:12:19;100635.09;;;21.61;93.79
38718;BME280;24468;52.128;9.278;2023-07-13T08:14:45;100638.00;;;21.39;94.21
38718;BME280;24468;52.128;9.278;2023-07-13T08:17:14;100637.66;;;21.53;97.62
38718;BME280;24468;52.128;9.278;2023-07-13T08:19:40;100642.41;;;21.82;94.96
38718;BME280;24468;52.128;9.278;2023-07-13T08:22:05;100627.88;;;22.10;91.82
38718;BME280;24468;52.128;9.278;2023-07-13T08:24:31;100636.88;;;22.12;92.25
38718;BME280;24468;52.128;9.278;2023-07-13T08:26:56;100640.84;;;21.58;97.97
38718;BME280;24468;52.128;9.278;2023-07-13T08:29:23;100634.97;;;22.13;92.24
38718;BME280;24468;52.128;9.278;2023-07-13T08:31:48;100634.13;;;22.12;92.90
38718;BME280;24468;52.128;9.278;2023-07-13T08:34:14;100651.13;;;22.37;90.16
38718;BME280;24468;52.128;9.278;2023-07-13T08:36:40;100652.16;;;21.65;91.72
38718;BME280;24468;52.128;9.278;2023-07-13T08:39:06;100647.63;;;21.85;94.61
38718;BME280;24468;52.128;9.278;2023-07-13T08:41:32;100652.19;;;21.23;100.00
38718;BME280;24468;52.128;9.278;2023-07-13T08:43:59;100656.22;;;20.86;100.00
38718;BME280;24468;52.128;9.278;2023-07-13T08:46:35;100653.59;;;21.17;100.00
38718;BME280;24468;52.128;9.278;2023-07-13T08:49:22;100650.88;;;21.06;100.00
38718;BME280;24468;52.128;9.278;2023-07-13T08:52:14;100650.91;;;21.48;100.00
38718;BME280;24468;52.128;9.278;2023-07-13T08:54:50;100652.38;;;21.52;100.00
38718;BME280;24468;52.128;9.278;2023-07-13T08:57:24;100646.34;;;20.95;100.00
38718;BME280;24468;52.128;9.278;2023-07-13T08:59:55;100654.19;;;21.21;100.00
38718;BME280;24468;52.128;9.278;2023-07-13T09:05:22;100651.09;;;21.87;100.00
38718;BME280;24468;52.128;9.278;2023-07-13T09:10:49;100642.16;;;22.35;95.88
38718;BME280;24468;52.128;9.278;2023-07-13T09:13:39;100647.75;;;21.52;98.51
38718;BME280;24468;52.128;9.278;2023-07-13T09:16:07;100641.59;;;22.01;97.28
38718;BME280;24468;52.128;9.278;2023-07-13T09:18:44;100633.50;;;21.99;96.28
38718;BME280;24468;52.128;9.278;2023-07-13T09:21:30;100643.16;;;21.53;98.42
38718;BME280;24468;52.128;9.278;2023-07-13T09:24:09;100640.53;;;21.51;95.31
38718;BME280;24468;52.128;9.278;2023-07-13T09:26:42;100644.75;;;20.93;99.23
38718;BME280;24468;52.128;9.278;2023-07-13T09:29:23;100634.69;;;21.03;100.00
38718;BME280;24468;52.128;9.278;2023-07-13T09:31:55;100643.19;;;21.63;99.29
38718;BME280;24468;52.128;9.278;2023-07-13T09:34:25;100651.44;;;21.42;97.03
38718;BME280;24468;52.128;9.278;2023-07-13T09:36:51;100635.09;;;21.92;95.18
38718;BME280;24468;52.128;9.278;2023-07-13T09:39:30;100637.53;;;22.45;91.82
38718;BME280;24468;52.128;9.278;2023-07-13T09:42:17;100647.91;;;21.82;88.93
38718;BME280;24468;52.128;9.278;2023-07-13T09:44:53;100641.84;;;21.88;87.05
38718;BME280;24468;52.128;9.278;2023-07-13T09:50:01;100637.81;;;22.32;86.58
38718;BME280;24468;52.128;9.278;2023-07-13T09:52:38;100638.25;;;22.28;84.99
38718;BME280;24468;52.128;9.278;2023-07-13T09:55:27;100637.09;;;22.40;85.30
38718;BME280;24468;52.128;9.278;2023-07-13T09:57:54;100622.22;;;22.72;88.16
38718;BME280;24468;52.128;9.278;2023-07-13T10:00:28;100628.28;;;22.95;85.00
38718;BME280;24468;52.128;9.278;2023-07-13T10:05:49;100638.44;;;22.94;77.50
38718;BME280;24468;52.128;9.278;2023-07-13T10:08:26;100641.47;;;22.81;76.71
38718;BME280;24468;52.128;9.278;2023-07-13T10:11:02;100628.66;;;23.48;73.18
38718;BME280;24468;52.128;9.278;2023-07-13T10:13:36;100631.38;;;23.01;74.93
38718;BME280;24468;52.128;9.278;2023-07-13T10:16:04;100647.81;;;23.40;74.71
38718;BME280;24468;52.128;9.278;2023-07-13T10:18:55;100639.75;;;23.29;75.51
38718;BME280;24468;52.128;9.278;2023-07-13T10:21:38;100642.19;;;23.22;74.75
38718;BME280;24468;52.128;9.278;2023-07-13T10:24:20;100656.66;;;22.56;79.39
38718;BME280;24468;52.128;9.278;2023-07-13T10:27:03;100647.97;;;23.39;78.21
38718;BME280;24468;52.128;9.278;2023-07-13T10:32:11;100634.84;;;23.70;74.25
38718;BME280;24468;52.128;9.278;2023-07-13T10:34:38;100640.47;;;23.68;74.36
38718;BME280;24468;52.128;9.278;2023-07-13T10:37:05;100640.72;;;23.94;72.70
38718;BME280;24468;52.128;9.278;2023-07-13T10:39:33;100648.19;;;24.02;73.17
38718;BME280;24468;52.128;9.278;2023-07-13T10:42:04;100642.19;;;23.89;71.24
38718;BME280;24468;52.128;9.278;2023-07-13T10:44:33;100645.28;;;23.76;71.54
38718;BME280;24468;52.128;9.278;2023-07-13T10:47:06;100648.25;;;23.92;70.27
38718;BME280;24468;52.128;9.278;2023-07-13T10:49:34;100641.03;;;24.19;68.63
38718;BME280;24468;52.128;9.278;2023-07-13T10:52:02;100654.19;;;24.43;69.34
38718;BME280;24468;52.128;9.278;2023-07-13T10:54:32;100647.88;;;23.78;68.74
38718;BME280;24468;52.128;9.278;2023-07-13T10:57:20;100645.13;;;24.60;67.16
38718;BME280;24468;52.128;9.278;2023-07-13T11:00:08;100663.59;;;23.48;67.84
38718;BME280;24468;52.128;9.278;2023-07-13T11:02:34;100653.47;;;23.95;70.68
38718;BME280;24468;52.128;9.278;2023-07-13T11:08:16;100665.66;;;23.26;71.96
38718;BME280;24468;52.128;9.278;2023-07-13T11:10:52;100656.50;;;23.45;72.54
38718;BME280;24468;52.128;9.278;2023-07-13T11:18:45;100670.16;;;23.37;71.68
38718;BME280;24468;52.128;9.278;2023-07-13T11:21:21;100652.91;;;23.35;74.76
38718;BME280;24468;52.128;9.278;2023-07-13T11:26:52;100658.91;;;23.58;70.69
38718;BME280;24468;52.128;9.278;2023-07-13T11:31:51;100650.69;;;23.95;68.50
38718;BME280;24468;52.128;9.278;2023-07-13T11:34:27;100647.03;;;24.05;66.61
38718;BME280;24468;52.128;9.278;2023-07-13T11:36:56;100651.13;;;24.01;67.54
38718;BME280;24468;52.128;9.278;2023-07-13T11:39:39;100643.47;;;23.94;66.59
38718;BME280;24468;52.128;9.278;2023-07-13T11:42:12;100647.81;;;23.97;67.81
38718;BME280;24468;52.128;9.278;2023-07-13T11:44:45;100637.94;;;23.94;66.65
38718;BME280;24468;52.128;9.278;2023-07-13T11:47:18;100640.44;;;24.15;66.74
38718;BME280;24468;52.128;9.278;2023-07-13T11:49:49;100638.84;;;23.85;66.80
38718;BME280;24468;52.128;9.278;2023-07-13T11:52:21;100639.88;;;23.84;67.03
38718;BME280;24468;52.128;9.278;2023-07-13T11:54:57;100634.16;;;23.95;66.56
38718;BME280;24468;52.128;9.278;2023-07-13T11:57:36;100635.78;;;23.88;65.84
38718;BME280;24468;52.128;9.278;2023-07-13T12:00:17;100640.50;;;24.06;66.66
38718;BME280;24468;52.128;9.278;2023-07-13T12:02:48;100634.78;;;24.17;65.66
38718;BME280;24468;52.128;9.278;2023-07-13T12:05:17;100637.84;;;24.14;65.99
38718;BME280;24468;52.128;9.278;2023-07-13T12:07:43;100641.59;;;24.40;64.53
38718;BME280;24468;52.128;9.278;2023-07-13T12:12:37;100630.59;;;24.76;63.00
38718;BME280;24468;52.128;9.278;2023-07-13T12:15:07;100627.31;;;24.55;63.51
38718;BME280;24468;52.128;9.278;2023-07-13T12:17:34;100621.22;;;24.87;60.32
38718;BME280;24468;52.128;9.278;2023-07-13T12:20:00;100626.41;;;24.54;61.58
38718;BME280;24468;52.128;9.278;2023-07-13T12:22:27;100625.56;;;24.26;63.82
38718;BME280;24468;52.128;9.278;2023-07-13T12:24:53;100636.41;;;24.10;63.24
38718;BME280;24468;52.128;9.278;2023-07-13T12:27:25;100630.84;;;24.47;62.15
38718;BME280;24468;52.128;9.278;2023-07-13T12:29:59;100653.22;;;24.44;62.04
38718;BME280;24468;52.128;9.278;2023-07-13T12:32:26;100633.91;;;24.44;61.93
38718;BME280;24468;52.128;9.278;2023-07-13T12:35:14;100636.03;;;24.50;62.68
38718;BME280;24468;52.128;9.278;2023-07-13T12:37:51;100631.41;;;23.95;64.57
38718;BME280;24468;52.128;9.278;2023-07-13T12:40:19;100636.19;;;24.84;62.46
38718;BME280;24468;52.128;9.278;2023-07-13T12:42:47;100635.53;;;24.37;63.21
38718;BME280;24468;52.128;9.278;2023-07-13T12:45:26;100632.91;;;25.43;59.88
38718;BME280;24468;52.128;9.278;2023-07-13T12:48:02;100642.94;;;25.44;59.67
38718;BME280;24468;52.128;9.278;2023-07-13T12:50:40;100643.28;;;25.23;59.39
38718;BME280;24468;52.128;9.278;2023-07-13T12:53:14;100644.63;;;24.65;60.59
38718;BME280;24468;52.128;9.278;2023-07-13T12:58:30;100655.69;;;24.10;61.23
38718;BME280;24468;52.128;9.278;2023-07-13T13:00:59;100643.47;;;23.94;63.32
38718;BME280;24468;52.128;9.278;2023-07-13T13:03:39;100653.00;;;23.53;64.18
38718;BME280;24468;52.128;9.278;2023-07-13T13:06:22;100652.78;;;23.27;66.55
38718;BME280;24468;52.128;9.278;2023-07-13T13:08:52;100648.91;;;24.04;65.23
38718;BME280;24468;52.128;9.278;2023-07-13T13:11:20;100643.28;;;23.96;65.26
38718;BME280;24468;52.128;9.278;2023-07-13T13:13:46;100643.91;;;24.45;62.16
38718;BME280;24468;52.128;9.278;2023-07-13T13:16:23;100632.75;;;24.19;61.53
38718;BME280;24468;52.128;9.278;2023-07-13T13:18:51;100660.50;;;24.08;63.30
38718;BME280;24468;52.128;9.278;2023-07-13T13:21:18;100652.03;;;24.19;65.02
38718;BME280;24468;52.128;9.278;2023-07-13T13:23:44;100648.03;;;23.76;64.96